Wing River, Minnesota
Current Conditions -  °F | °C
As of 11:53 PM on Saturday 22 Nov 2014 (Local Time) from KSAZ Reporting Station
Haze Haze  
Wind Chill: 26°   Ceiling: 200
Heat Index: 32°   Visibility: 0.75mi
Dew Point: 32°   Wind: 6mph
Humidity: 100%   Direction: 140°SE
Pressure: 29.41"   Gusts: NA
Location:  46.4671°N, 94.8901°W
Report Text: KSAZ 230553Z AUTO 14005KT 3/4SM BR OVC002 00/00 A2941 RMK AO2
Loading
Personal Weather Stations






























Interactive Weather Map New forecast layout! Learn more

10-Day Weather Forecast

Advertisements
Track Severe Weather on mobile